AirNav   Pilot Hours Calculator
 
 1370 users online  

2R2 Hendricks County Airport-Gordon Graham Field
Indianapolis, Indiana, USA

GOING TO INDIANAPOLIS?


FAA INFORMATION EFFECTIVE 26 JANUARY 2023

Location

FAA Identifier: 2R2
Lat/Long: 39-44-48.4000N 086-28-30.6000W
39-44.806667N 086-28.510000W
39.7467778,-86.4751667
(estimated)
Elevation: 897.8 ft. / 273.6 m (surveyed)
Variation: 03W (1965)
From city: 13 miles W of INDIANAPOLIS, IN
Time zone: UTC -5 (UTC -4 during Daylight Saving Time)
Zip code: 46122

Airport Operations

Airport use: Open to the public
Activation date: 11/2001
Control tower: no
ARTCC: INDIANAPOLIS CENTER
FSS: TERRE HAUTE FLIGHT SERVICE STATION
NOTAMs facility: HUF (NOTAM-D service available)
Attendance: MON-FRI 0700-1530
Wind indicator: lighted
Segmented circle: yes
Lights: ACTVT REIL RWY 18 & 36; MIRL RWY 18/36 - CTAF. MIRL RWY 18/36 PRESET TO LOW INTST, TO INCR INTST - CTAF.
Beacon: white-green (lighted land airport)

Airport Communications

CTAF/UNICOM: 122.7
WX AWOS-3P: 118.025 (317-718-4872)
INDIANAPOLIS APPROACH: 121.1
INDIANAPOLIS DEPARTURE: 119.05
WX ASOS at IND (9 nm E): PHONE 317-241-0348
WX ASOS at EYE (10 nm NE): 121.575 (317-329-1754)
WX AWOS-3 at 8A4 (15 nm E): 135.525 (317-955-3160)
WX AWOS-3PT at GPC (17 nm SW): 118.125 (765-653-1789)
WX AWOS-3P at HFY (19 nm E): 118.525 (317-882-5862)
WX AWOS-3PT at TYQ (20 nm NE): 120.725 (317-769-3154)

Nearby radio navigation aids

VOR radial/distance  VOR name  Freq  Var
VHPr230/6.4BRICKYARD VORTAC116.3001E
SHBr282/30.8SHELBYVILLE VOR/DME116.1501E
OOMr012/36.7HOOSIER VORTAC110.2002W
TTHr065/39.0TERRE HAUTE VORTAC115.3002E

 
NDB name  Hdg/Dist  Freq  Var  ID
METROPOLITAN243/22.733803WUMP ..- -- .--.
CRAWFORDSVILLE129/24.738804WCFJ -.-. ..-. .---

Airport Services

Fuel available: 100LL MOGAS
Parking: hangars and tiedowns

Runway Information

Runway 18/36

Dimensions: 4400 x 100 ft. / 1341 x 30 m
Surface: asphalt, in good condition
Runway edge lights: medium intensity
RUNWAY 18  RUNWAY 36
Latitude: 39-45.169695N39-44.445243N
Longitude: 086-28.506875W086-28.513573W
Elevation: 897.8 ft.864.3 ft.
Traffic pattern: leftleft
Runway heading: 183 magnetic, 180 true003 magnetic, 000 true
Markings: nonprecision, in good conditionnonprecision, in good condition
Visual slope indicator: 2-light PAPI on left (3.00 degrees glide path)2-light PAPI on left (3.00 degrees glide path)
Runway end identifier lights: yesyes
Touchdown point: yes, no lightsyes, no lights
Obstructions: none25 ft. pline, lighted, 726 ft. from runway, 230 ft. left of centerline, 21:1 slope to clear

Airport Ownership and Management from official FAA records

Ownership: Publicly-owned
Owner: INDIANAPOLIS AIRPORT AUTHORITY
7800 COL. H. WEIR COOK MEMORIAL DR., SUITE 100
INDIANAPOLIS, IN 46241
Phone (317) 487-5022
Manager: KEITH BERLEN
7800 COL. H. WEIR COOK MEMORIAL DR., SUITE 100
INDIANAPOLIS, IN 46241
Phone (317) 487-5022

Airport Operational Statistics

Aircraft based on the field: 65
Single engine airplanes: 62
Multi engine airplanes: 3
    
Aircraft operations: avg 37/day *
50% local general aviation
44% transient general aviation
4% military
2% air taxi
* for 12-month period ending 31 December 2019

Additional Remarks

USE CAUTION FOR RC MODEL AIRCRAFT ACTIVITY LOCATED APPROXIMATELY 1 NM WEST OF THE RWY 18 THRESHOLD OPERATING BLO 400 FT AGL.
FOR CD CTC INDIANAPOLIS APCH AT 317-227-5743.

Instrument Procedures

NOTE: All procedures below are presented as PDF files. If you need a reader for these files, you should download the free Adobe Reader.

NOT FOR NAVIGATION. Please procure official charts for flight.
FAA instrument procedures published for use from 26 January 2023 at 0901Z to 23 February 2023 at 0900z.

 
IAPs - Instrument Approach Procedures
RNAV (GPS) RWY 18   download
RNAV (GPS) RWY 36   download
NOTE: Special Take-Off Minimums/Departure Procedures apply   download (459KB)

Other nearby airports with instrument procedures:

KIND - Indianapolis International Airport (9 nm E)
KEYE - Eagle Creek Airpark (10 nm NE)
8A4 - Indianapolis Downtown Heliport (15 nm E)
KGPC - Putnam County Regional Airport (17 nm SW)
KHFY - Indy South Greenwood Airport (19 nm E)
KTYQ - Indianapolis Executive Airport (20 nm NE)
 
Loc | Ops | Rwys | IFR | FBO | Links
Com | Nav | Svcs | Stats | Notes
Area around 2R2 (Hendricks County Airport-Gordon Graham Field)
 
Road maps at: MapQuest Bing Google
 
Aerial photo
WARNING: Photo may not be current or correct
Aerial photo of 2R2 (Hendricks County Airport-Gordon Graham Field)
Photo by Sara Gradwohl
Photo taken 12-Aug-2013
looking north.

Do you have a better or more recent aerial photo of Hendricks County Airport-Gordon Graham Field that you would like to share? If so, please send us your photo.

 
Sectional chart

 
Airport distance calculator
Flying to Hendricks County Airport-Gordon Graham Field? Find the distance to fly.

From to 2R2

Sunrise and sunset
Times for 01-Feb-2023
 Local
(UTC-5)
 Zulu
(UTC)
Morning civil twilight07:2612:26
Sunrise07:5512:55
Sunset18:0423:04
Evening civil twilight18:3323:33

Current date and time
Zulu (UTC)  01-Feb-2023 23:37:48
Local (UTC-5)  01-Feb-2023 18:37:48
 
METAR
KIND 
9nm E 
012254Z 27004KT 10SM SCT180 BKN250 M03/M13 A3032 RMK AO2 SLP280 T10331133
KEYE 
10nm NE 
012253Z AUTO 00000KT 10SM CLR M03/M15 A3031 RMK AO2 SLP277 T10281150
KGPC 
17nm SW 
012315Z AUTO 00000KT 10SM CLR M03/M13 A3030 RMK AO2 T10291134
KHFY 
19nm E 
012315Z AUTO 00000KT 10SM CLR M01/M11 A3033 RMK AO2 T10151106
KTYQ 
20nm NE 
012315Z AUTO 22003KT 10SM CLR M04/M11 A3031 RMK AO2 T10381115
TAF
KIND 
9nm E 
012020Z 0120/0224 20004KT P6SM FEW150 BKN250= TAF AMD KBTV 012021Z 0120/0218 21008KT P6SM OVC060 TEMPO 0120/0123 26006KT 3SM -SN BR FM021000 18008KT P6SM BKN035 FM021600 19014G20KT P6SM BKN090
NOTAMs
Click for the latest NOTAMs
NOTAMs are issued by the DoD/FAA and will open in a separate window not controlled by AirNav.

 

 
 

FBO, Fuel Providers, and Aircraft Ground Support

  
 Business Name 
 
 Contact 
 
 Services / Description 
 
Fuel Prices
 
Comments
  
Hendricks County Airport 317-745-2389
[email]
Airport management, Aviation fuel, Aircraft parking (ramp or tiedown), Passenger terminal and lounge, Pilots lounge / snooze room, Public telephone, ...

More info about Hendricks County Airport
Phillips 66
100LL Mogas
SS $5.50 $5.00 
 Updated 29-Dec-2022
 
   write
SS=Self service
Update Fuel Prices
 

Would you like to see your business listed on this page?

 If your business provides an interesting product or service to pilots, flight crews, aircraft, or users of the Hendricks County Airport-Gordon Graham Field, you should consider listing it here.  To start the listing process, click on the button below
 
Add a business
 

Other Pages about Hendricks County Airport-Gordon Graham Field

www.indianapolisairport.com/...
 
Update a link
 
Copyright © AirNav, LLC. All rights reserved. Privacy Policy  Contact